Green Fast — ZDHA9 — position and weather

sailwx.info

Track history (hours):
 
Tides and Currents Weather Stations Pressure Air Temp Water Temp Dewpoint Dewpoint Depression Visibility Wind Speed Wind Dir Waves Ship Positions

Green Fast

Last reported at 2014-Jul-06 20:28 UTC. Time now 2014-Jul-24 21:39 UTC.
Position N 36°50' E 010°22'.
Warning: this ship's position is 18 days out of date.

Length 118 m; draft 7.3 m.

Type: Ship (hazmat cat A). MMSI: 236294000.

Date/timePositionNaut miles runAvg speedWind from/ knotsBaromVisibWave heightAir tempDewpointWater temp
2014-Jul-06 20:28N 36°50' E 010°22'0 0.0
2014-Jul-06 04:31N 36°50' E 010°22'0 0.0
2014-Jul-05 16:07N 36°50' E 010°22'0 0.0
2014-Jul-05 15:31N 36°49' E 010°22'0 0.0
2014-Jul-05 03:13N 36°50' E 010°22'0 0.0
2014-Jul-05 02:28N 36°50' E 010°22'0 0.0
2014-Jul-03 03:31N 36°50' E 010°22'0 0.0
2014-Jul-02 10:31N 36°50' E 010°22'0 0.0
2014-Jul-02 05:13N 36°50' E 010°22'0 0.0
2014-Jul-02 03:31N 36°50' E 010°22'0 0.0
2014-Jul-01 18:31N 36°50' E 010°22'0 0.0
2014-Jul-01 17:13N 36°50' E 010°22'  
2014-Jun-28 11:10N 36°51' E 010°23'1911.7
2014-Jun-28 09:33N 37°09' E 010°30'1212.3
2014-Jun-28 08:34N 37°20' E 010°24'1212.4
2014-Jun-28 07:33N 37°31' E 010°17'1111.2
2014-Jun-28 06:34N 37°34' E 010°03'1212.5
2014-Jun-28 05:33N 37°38' E 009°48'1212.1
2014-Jun-28 04:34N 37°43' E 009°35'1211.9
2014-Jun-28 03:34N 37°48' E 009°21'2611.8
2014-Jun-28 01:24N 37°59' E 008°52'1011.8
2014-Jun-28 00:34N 38°03' E 008°40'1212.2
2014-Jun-27 23:33N 38°08' E 008°26'1211.7
2014-Jun-27 22:33N 38°13' E 008°13'1312.0
2014-Jun-27 21:27N 38°19' E 007°57'1010.6
2014-Jun-27 20:34N 38°23' E 007°46'1411.6
2014-Jun-27 19:23N 38°29' E 007°30'1011.5
2014-Jun-27 18:32N 38°33' E 007°19'1111.0
2014-Jun-27 17:34N 38°38' E 007°07'1211.9
2014-Jun-27 16:33N 38°42' E 006°53'1211.9
2014-Jun-27 15:33N 38°47' E 006°39'1412.7
2014-Jun-27 14:27N 38°53' E 006°23'1010.7
2014-Jun-27 13:33N 38°57' E 006°11'1211.5
2014-Jun-27 12:32N 39°02' E 005°58'1312.2
2014-Jun-27 11:27N 39°08' E 005°42'1010.7
2014-Jun-27 10:33N 39°12' E 005°31'1312.5
2014-Jun-27 09:30N 39°17' E 005°15'3311.3
2014-Jun-27 06:34N 39°31' E 004°37'1211.8
2014-Jun-27 05:31N 39°36' E 004°22'1211.9
2014-Jun-27 04:32N 39°41' E 004°08'1111.8
2014-Jun-27 03:34N 39°46' E 003°54'1211.7
2014-Jun-27 02:33N 39°51' E 003°41'1211.8
2014-Jun-27 01:33N 39°57' E 003°28'1312.5
2014-Jun-27 00:31N 40°04' E 003°14'1111.4
2014-Jun-26 23:34N 40°10' E 003°02'1212.1
2014-Jun-26 22:34N 40°17' E 002°48'1211.9
2014-Jun-26 21:34N 40°23' E 002°35'1211.9
2014-Jun-26 20:33N 40°30' E 002°22'  
Track history (hours):
 
Tides and Currents Weather Stations Pressure Air Temp Water Temp Dewpoint Dewpoint Depression Visibility Wind Speed Wind Dir Waves Ship Positions

Green Fast

Last reported at 2014-Jul-06 20:28 UTC. Time now 2014-Jul-24 21:39 UTC.
Position N 36°50' E 010°22'.
Warning: this ship's position is 18 days out of date.

Length 118 m; draft 7.3 m.

Type: Ship (hazmat cat A). MMSI: 236294000.

Date/timePositionNaut miles runAvg speedWind from/ knotsBaromVisibWave heightAir tempDewpointWater temp
2014-Jul-06 20:28N 36°50' E 010°22'0 0.0
2014-Jul-06 04:31N 36°50' E 010°22'0 0.0
2014-Jul-05 16:07N 36°50' E 010°22'0 0.0
2014-Jul-05 15:31N 36°49' E 010°22'0 0.0
2014-Jul-05 03:13N 36°50' E 010°22'0 0.0
2014-Jul-05 02:28N 36°50' E 010°22'0 0.0
2014-Jul-03 03:31N 36°50' E 010°22'0 0.0
2014-Jul-02 10:31N 36°50' E 010°22'0 0.0
2014-Jul-02 05:13N 36°50' E 010°22'0 0.0
2014-Jul-02 03:31N 36°50' E 010°22'0 0.0
2014-Jul-01 18:31N 36°50' E 010°22'0 0.0
2014-Jul-01 17:13N 36°50' E 010°22'  
2014-Jun-28 11:10N 36°51' E 010°23'1911.7
2014-Jun-28 09:33N 37°09' E 010°30'1212.3
2014-Jun-28 08:34N 37°20' E 010°24'1212.4
2014-Jun-28 07:33N 37°31' E 010°17'1111.2
2014-Jun-28 06:34N 37°34' E 010°03'1212.5
2014-Jun-28 05:33N 37°38' E 009°48'1212.1
2014-Jun-28 04:34N 37°43' E 009°35'1211.9
2014-Jun-28 03:34N 37°48' E 009°21'2611.8
2014-Jun-28 01:24N 37°59' E 008°52'1011.8
2014-Jun-28 00:34N 38°03' E 008°40'1212.2
2014-Jun-27 23:33N 38°08' E 008°26'1211.7
2014-Jun-27 22:33N 38°13' E 008°13'1312.0
2014-Jun-27 21:27N 38°19' E 007°57'1010.6
2014-Jun-27 20:34N 38°23' E 007°46'1411.6
2014-Jun-27 19:23N 38°29' E 007°30'1011.5
2014-Jun-27 18:32N 38°33' E 007°19'1111.0
2014-Jun-27 17:34N 38°38' E 007°07'1211.9
2014-Jun-27 16:33N 38°42' E 006°53'1211.9
2014-Jun-27 15:33N 38°47' E 006°39'1412.7
2014-Jun-27 14:27N 38°53' E 006°23'1010.7
2014-Jun-27 13:33N 38°57' E 006°11'1211.5
2014-Jun-27 12:32N 39°02' E 005°58'1312.2
2014-Jun-27 11:27N 39°08' E 005°42'1010.7
2014-Jun-27 10:33N 39°12' E 005°31'1312.5
2014-Jun-27 09:30N 39°17' E 005°15'3311.3
2014-Jun-27 06:34N 39°31' E 004°37'1211.8
2014-Jun-27 05:31N 39°36' E 004°22'1211.9
2014-Jun-27 04:32N 39°41' E 004°08'1111.8
2014-Jun-27 03:34N 39°46' E 003°54'1211.7
2014-Jun-27 02:33N 39°51' E 003°41'1211.8
2014-Jun-27 01:33N 39°57' E 003°28'1312.5
2014-Jun-27 00:31N 40°04' E 003°14'1111.4
2014-Jun-26 23:34N 40°10' E 003°02'1212.1
2014-Jun-26 22:34N 40°17' E 002°48'1211.9
2014-Jun-26 21:34N 40°23' E 002°35'1211.9
2014-Jun-26 20:33N 40°30' E 002°22'  

Dump ship's entire track history